Share

Saint-Nazaire, France

Saint-Brevin les Pins (IPAYSDEL38) Elev 20 ft | 47.24 °N, 2.16 °W | Change Station

Current weather conditions updated 17 seconds ago

Clear
Clear
39.6 °F
Feels Like 40 °F
N
1.0
Wind Variable Wind from East
Gusts 1.0 mph
Sunrise 7:17 AM
Sunset 9:00 PM
Moon Waning Gibbous

Today is forecast to be nearly the same temperature as yesterday.

Pressure 30.18 in
Visibility 6.2 miles
Clouds
Windchill 40 °F
Dew Point 36 °F
Humidity 86%
Rainfall 0.00 in
Snow Depth Not available.
UV 0.0 out of 16
Pollen Not available.
Air Quality Not available.
Flu Activity Not available.
METAR LFRZ 170530Z AUTO 01004KT 9999 NSC 05/02 Q1022

More Conditions Fewer Conditions

Pressure 30.18 in
Visibility 6.2 miles
Clouds
Windchill 40 °F
Dew Point 36 °F
Humidity 86%
Rainfall 0.00 in
Snow Depth Not available.
UV 0.0 out of 16
Pollen Not available.
Air Quality Not available.
Flu Activity Not available.
METAR LFRZ 170530Z AUTO 01004KT 9999 NSC 05/02 Q1022

More Conditions Fewer Conditions

10-Day Forecast

Almanac

Astronomy

Apr. 17, 2014 Rise Set
Actual Time 7:17 AM CEST 9:00 PM CEST
Civil Twilight 6:44 AM CEST 9:32 PM CEST
Nautical Twilight 6:05 AM CEST 10:12 PM CEST
Astronomical Twilight 5:22 AM CEST 10:55 PM CEST
Moon 11:39 PM CEST 8:31 AM CEST
Length of Visible Light 14h 48m
Length of Day
13h 43m
Tomorrow will be 3m 15s longer.
Waning Gibbous, 96% of the Moon is Illuminated
Today
Waning Gibbous
Apr 22
Last Quarter
Apr 29
New
May 6
First Quarter
May 14
Full

Yesterday's Extremes

Country Highs Country Lows

Community

  • symphony in blue....
    symphony in blue....
  • Dawn Surprise
    Dawn Surprise
  • Yucca delight
    Yucca delight
  • Sunset inside of the Ocean
    Sunset inside of the Ocean
  • Lunar eclipse 15 April 2014
    Lunar eclipse 15 April 2014

WunderPhotos

Upload Photos

1,701,871 photos uploaded!

WunderBlogs® & News

Nearby

Snow Depth

Not available.

Coastal Water Temperatures

Place Temperature
No Stations Reporting

Earthquake Activity

City Distance Mag. Time & Date
No recent earthquake activity has been reported nearby.
Minimum magnitude displayed is 2.5.

Nearby Weather Stations

Station Location Temp. Windchill Dew Point Humidity Wind Precip. Elev Updated Type
Saint-Brevin les Pins, Pays de la Loire 39.6 °F 40 °F 36 °F 86% East  at  1.0 mph 0.00 in / hr 20 ft 7:40 AM CEST Normal
Fay de Bretagne, Fay De Bretagne 39.0 °F 39 °F 36 °F 87% NE  at  0.0 mph 0.00 in / hr 135 ft 7:29 AM CEST Normal
Les Moutiers-en-Retz 42.4 °F 42 °F 36 °F 78% North  at  - 0.00 in / hr 23 ft 7:40 AM CEST Rapid Fire
Damgan 43.5 °F 44 °F 36 °F 74% NE  at  3.0 mph 0.00 in / hr 3 ft 7:40 AM CEST Normal
St Jacut Les Pins, Saint-Jacut-les-Pins 35.2 °F 35 °F 30 °F 82% West  at  0.0 mph 0.00 in / hr 7 ft 7:40 AM CEST Rapid Fire

Show More Stations Show Fewer Stations

What do you think?

We're not finished. Please let us know what you like, what you don't like, and what you are still missing.